createdAt,value
2018-03-01T00:01:18.387Z,20.95
2018-03-01T00:03:45.886Z,21.17
2018-03-01T00:06:13.388Z,19.75
2018-03-01T00:08:40.893Z,21.30
2018-03-01T00:11:08.384Z,27.05
2018-03-01T00:13:35.884Z,19.15
2018-03-01T00:16:03.395Z,27.87
2018-03-01T00:18:30.885Z,20.15
2018-03-01T00:20:58.387Z,27.92
2018-03-01T00:23:25.891Z,20.42
2018-03-01T00:25:53.386Z,29.65
2018-03-01T00:28:20.882Z,21.27
2018-03-01T00:30:48.374Z,21.80
2018-03-01T00:33:15.907Z,21.62
2018-03-01T00:35:43.426Z,20.30
2018-03-01T00:38:10.922Z,26.60
2018-03-01T00:40:38.422Z,26.23
2018-03-01T00:43:05.914Z,27.45
2018-03-01T00:45:33.420Z,23.90
2018-03-01T00:48:00.925Z,24.48
2018-03-01T00:50:28.432Z,24.73
2018-03-01T00:52:55.942Z,23.17
2018-03-01T00:55:23.454Z,23.85
2018-03-01T00:57:50.935Z,25.25
2018-03-01T01:00:18.438Z,27.27
2018-03-01T01:02:45.923Z,29.73
2018-03-01T01:05:13.432Z,24.42
2018-03-01T01:07:40.920Z,25.92
2018-03-01T01:10:08.415Z,31.62
2018-03-01T01:12:35.917Z,26.08
2018-03-01T01:15:03.422Z,30.20
2018-03-01T01:17:30.937Z,24.12
2018-03-01T01:19:58.465Z,28.33
2018-03-01T01:22:25.979Z,26.87
2018-03-01T01:24:53.478Z,29.12
2018-03-01T01:27:20.979Z,26.00
2018-03-01T01:29:48.476Z,26.12
2018-03-01T01:32:16.001Z,31.02
2018-03-01T01:34:43.503Z,26.40
2018-03-01T01:37:11.024Z,30.37
2018-03-01T01:39:38.523Z,27.87
2018-03-01T01:42:06.030Z,25.05
2018-03-01T01:44:33.515Z,29.00
2018-03-01T01:47:00.992Z,29.45
2018-03-01T01:49:28.487Z,25.10
2018-03-01T01:51:56.008Z,27.95
2018-03-01T01:54:23.490Z,27.50
2018-03-01T01:56:50.974Z,24.63
2018-03-01T01:59:18.474Z,27.67
2018-03-01T02:01:45.961Z,28.40
2018-03-01T02:04:13.449Z,28.80
2018-03-01T02:06:40.934Z,27.02
2018-03-01T02:09:08.418Z,28.77
2018-03-01T02:11:35.916Z,27.67
2018-03-01T02:14:03.423Z,28.38
2018-03-01T02:16:30.940Z,28.80
2018-03-01T02:18:58.419Z,24.37
2018-03-01T02:21:25.925Z,24.58
2018-03-01T02:23:53.420Z,28.92
2018-03-01T02:26:20.904Z,29.67
2018-03-01T02:28:48.396Z,27.60
2018-03-01T02:31:15.940Z,31.27
2018-03-01T02:33:43.431Z,26.67
2018-03-01T02:36:10.941Z,34.22
2018-03-01T02:38:38.449Z,32.30
2018-03-01T02:41:05.951Z,30.98
2018-03-01T02:43:33.479Z,30.50
2018-03-01T02:48:29.018Z,30.98
2018-03-01T02:50:56.524Z,31.27
2018-03-01T02:53:24.032Z,32.13
2018-03-01T02:55:51.523Z,30.35
2018-03-01T02:58:19.027Z,25.62
2018-03-01T03:00:46.536Z,31.48
2018-03-01T03:03:14.034Z,30.08
2018-03-01T03:05:41.631Z,31.17
2018-03-01T03:08:09.124Z,29.48
2018-03-01T03:10:36.634Z,34.00
2018-03-01T03:13:04.124Z,34.20
2018-03-01T03:15:31.614Z,32.63
2018-03-01T03:17:59.135Z,32.80
2018-03-01T03:20:26.635Z,33.55
2018-03-01T03:22:54.126Z,34.90
2018-03-01T03:25:21.623Z,32.40
2018-03-01T03:27:49.142Z,34.10
2018-03-01T03:30:16.636Z,31.27
2018-03-01T03:32:44.112Z,35.63
2018-03-01T03:35:11.619Z,34.50
2018-03-01T03:37:39.112Z,38.10
2018-03-01T03:40:06.640Z,36.97
2018-03-01T03:42:34.145Z,34.50
2018-03-01T03:45:01.655Z,32.00
2018-03-01T03:47:29.150Z,32.70
2018-03-01T03:49:56.650Z,39.38
2018-03-01T03:52:24.192Z,32.33
2018-03-01T03:54:51.689Z,34.58
2018-03-01T03:57:19.171Z,35.97
2018-03-01T03:59:46.680Z,40.33
2018-03-01T04:02:14.176Z,36.00
2018-03-01T04:04:41.715Z,37.38
2018-03-01T04:07:09.207Z,38.20
2018-03-01T04:09:36.710Z,36.25
2018-03-01T04:12:04.210Z,39.33
2018-03-01T04:14:31.702Z,36.50
2018-03-01T04:16:59.191Z,35.83
2018-03-01T04:19:26.683Z,37.92
2018-03-01T04:21:54.201Z,37.30
2018-03-01T04:24:21.697Z,35.92
2018-03-01T04:26:49.188Z,37.17
2018-03-01T04:29:16.687Z,41.63
2018-03-01T04:31:44.184Z,36.55
2018-03-01T04:34:11.679Z,36.20
2018-03-01T04:36:39.175Z,35.17
2018-03-01T04:39:06.685Z,39.83
2018-03-01T04:41:34.173Z,39.85
2018-03-01T04:44:01.664Z,38.72
2018-03-01T04:46:29.184Z,41.37
2018-03-01T04:48:56.667Z,36.08
2018-03-01T04:51:24.168Z,46.80
2018-03-01T04:53:51.662Z,38.80
2018-03-01T04:56:19.159Z,36.05
2018-03-01T04:58:46.655Z,36.47
2018-03-01T05:01:14.169Z,40.92
2018-03-01T05:03:41.685Z,40.70
2018-03-01T05:06:09.178Z,37.95
2018-03-01T05:08:36.661Z,43.10
2018-03-01T05:11:04.172Z,41.97
2018-03-01T05:13:31.675Z,40.83
2018-03-01T05:15:59.167Z,36.50
2018-03-01T05:18:26.665Z,41.15
2018-03-01T05:20:54.161Z,39.15
2018-03-01T05:23:21.657Z,38.55
2018-03-01T05:25:49.191Z,37.80
2018-03-01T05:28:16.691Z,46.80
2018-03-01T05:30:44.206Z,44.15
2018-03-01T05:33:11.728Z,43.40
2018-03-01T05:35:39.215Z,48.30
2018-03-01T05:38:06.724Z,43.50
2018-03-01T05:40:34.207Z,43.17
2018-03-01T05:43:01.703Z,39.70
2018-03-01T05:45:29.197Z,41.35
2018-03-01T05:47:56.684Z,38.85
2018-03-01T05:50:24.199Z,39.95
2018-03-01T05:55:15.295Z,42.05
2018-03-01T05:57:42.805Z,45.38
2018-03-01T06:00:10.299Z,41.97
2018-03-01T06:02:37.791Z,46.58
2018-03-01T06:05:05.319Z,51.03
2018-03-01T06:07:32.829Z,48.83
2018-03-01T06:10:00.335Z,40.58
2018-03-01T06:12:27.850Z,53.87
2018-03-01T06:14:55.336Z,40.47
2018-03-01T06:17:22.849Z,44.88
2018-03-01T06:19:50.335Z,45.97
2018-03-01T06:22:17.835Z,44.03
2018-03-01T06:24:45.418Z,40.42
2018-03-01T06:27:12.939Z,48.60
2018-03-01T06:29:40.502Z,42.83
2018-03-01T06:32:08.067Z,44.17
2018-03-01T06:34:35.581Z,45.42
2018-03-01T06:37:03.095Z,49.63
2018-03-01T06:39:30.615Z,43.78
2018-03-01T06:41:58.108Z,42.35
2018-03-01T06:44:25.612Z,46.42
2018-03-01T06:46:53.112Z,47.20
2018-03-01T06:49:20.628Z,45.67
2018-03-01T06:51:48.151Z,48.13
2018-03-01T06:54:15.640Z,45.20
2018-03-01T06:56:43.124Z,42.33
2018-03-01T06:59:10.623Z,47.33
2018-03-01T07:01:38.136Z,44.00
2018-03-01T07:04:05.647Z,47.33
2018-03-01T07:06:33.136Z,39.83
2018-03-01T07:09:00.639Z,49.28
2018-03-01T07:11:28.149Z,46.37
2018-03-01T07:13:55.658Z,32.63
2018-03-01T07:16:23.170Z,51.63
2018-03-01T07:18:50.675Z,45.65
2018-03-01T07:21:18.380Z,42.75
2018-03-01T07:23:45.918Z,42.35
2018-03-01T07:26:13.992Z,44.92
2018-03-01T07:28:42.045Z,47.72
2018-03-01T07:31:09.548Z,43.03
2018-03-01T07:33:37.047Z,45.03
2018-03-01T07:36:04.555Z,46.97
2018-03-01T07:38:32.101Z,46.65
2018-03-01T07:40:59.623Z,44.75
2018-03-01T07:43:27.141Z,42.90
2018-03-01T07:45:54.640Z,50.42
2018-03-01T07:48:22.156Z,43.00
2018-03-01T07:50:49.665Z,46.20
2018-03-01T07:53:17.216Z,49.60
2018-03-01T07:55:44.738Z,43.03
2018-03-01T07:58:12.235Z,45.12
2018-03-01T08:00:39.803Z,43.72
2018-03-01T08:03:07.294Z,45.17
2018-03-01T08:05:34.817Z,43.15
2018-03-01T08:08:02.409Z,44.17
2018-03-01T08:10:29.916Z,46.22
2018-03-01T08:12:57.429Z,47.62
2018-03-01T08:15:24.933Z,50.20
2018-03-01T08:17:52.426Z,42.15
2018-03-01T08:20:19.923Z,44.63
2018-03-01T08:22:47.422Z,44.20
2018-03-01T08:25:16.114Z,46.37
2018-03-01T08:27:43.601Z,48.50
2018-03-01T08:30:11.104Z,46.92
2018-03-01T08:32:38.616Z,43.95
2018-03-01T08:35:06.105Z,43.65
2018-03-01T08:37:33.600Z,47.17
2018-03-01T08:40:01.114Z,42.97
2018-03-01T08:42:28.626Z,46.65
2018-03-01T08:44:56.140Z,44.47
2018-03-01T08:47:23.632Z,42.25
2018-03-01T08:49:51.137Z,43.00
2018-03-01T08:52:18.646Z,37.20
2018-03-01T08:54:46.151Z,40.97
2018-03-01T08:57:13.651Z,40.15
2018-03-01T08:59:41.141Z,33.53
2018-03-01T09:02:08.644Z,44.55
2018-03-01T09:04:36.147Z,46.40
2018-03-01T09:07:04.533Z,40.35
2018-03-01T09:09:32.118Z,50.22
2018-03-01T09:11:59.627Z,39.90
2018-03-01T09:14:27.152Z,41.67
2018-03-01T09:16:55.252Z,42.50
2018-03-01T09:19:22.811Z,37.85
2018-03-01T09:21:50.307Z,37.90
2018-03-01T09:24:17.815Z,42.22
2018-03-01T09:26:45.328Z,39.63
2018-03-01T09:29:12.826Z,40.20
2018-03-01T09:31:40.319Z,42.00
2018-03-01T09:34:07.828Z,41.28
2018-03-01T09:36:35.315Z,35.55
2018-03-01T09:39:02.915Z,40.22
2018-03-01T09:41:30.447Z,41.88
2018-03-01T09:43:58.747Z,40.78
2018-03-01T09:46:26.286Z,42.75
2018-03-01T09:48:53.810Z,38.47
2018-03-01T09:51:21.304Z,42.67
2018-03-01T09:53:48.816Z,38.53
2018-03-01T09:56:16.327Z,44.50
2018-03-01T09:58:43.833Z,39.92
2018-03-01T10:01:11.319Z,37.28
2018-03-01T10:03:38.797Z,37.50
2018-03-01T10:06:06.301Z,44.33
2018-03-01T10:08:33.792Z,42.30
2018-03-01T10:11:01.280Z,36.17
2018-03-01T10:13:28.795Z,36.47
2018-03-01T10:15:56.322Z,45.03
2018-03-01T10:18:23.827Z,39.42
2018-03-01T10:20:51.343Z,40.22
2018-03-01T10:23:18.835Z,41.53
2018-03-01T10:25:46.332Z,40.95
2018-03-01T10:28:13.840Z,37.05
2018-03-01T10:30:41.359Z,39.22
2018-03-01T10:33:08.871Z,37.95
2018-03-01T10:35:36.356Z,41.97
2018-03-01T10:38:03.875Z,42.90
2018-03-01T10:40:31.403Z,36.80
2018-03-01T10:42:58.908Z,38.58
2018-03-01T10:45:26.408Z,38.45
2018-03-01T10:47:53.887Z,41.20
2018-03-01T10:50:21.381Z,39.65
2018-03-01T10:52:48.902Z,38.53
2018-03-01T10:55:16.404Z,40.50
2018-03-01T10:57:43.898Z,41.05
2018-03-01T11:00:11.423Z,41.13
2018-03-01T11:02:38.931Z,37.72
2018-03-01T11:05:06.431Z,35.63
2018-03-01T11:07:33.928Z,35.10
2018-03-01T11:10:01.463Z,41.45
2018-03-01T11:12:28.971Z,38.38
2018-03-01T11:14:56.495Z,42.75
2018-03-01T11:17:23.985Z,38.47
2018-03-01T11:19:52.345Z,39.35
2018-03-01T11:22:19.889Z,32.22
2018-03-01T11:24:47.403Z,37.53
2018-03-01T11:27:14.935Z,38.72
2018-03-01T11:29:42.493Z,39.63
2018-03-01T11:32:09.985Z,41.35
2018-03-01T11:34:38.685Z,39.83
2018-03-01T11:37:06.304Z,39.63
2018-03-01T11:39:33.819Z,45.40
2018-03-01T11:42:01.402Z,41.63
2018-03-01T11:44:28.910Z,39.13
2018-03-01T11:46:56.435Z,37.30
2018-03-01T11:49:24.010Z,48.30
2018-03-01T11:51:51.507Z,42.47
2018-03-01T11:54:19.726Z,49.47
2018-03-01T11:56:47.232Z,38.33
2018-03-01T11:59:14.723Z,40.25
2018-03-01T12:01:42.255Z,36.42
2018-03-01T12:04:09.739Z,39.28
2018-03-01T12:06:37.238Z,36.80
2018-03-01T12:09:04.806Z,37.40
2018-03-01T12:11:32.340Z,40.85
2018-03-01T12:13:59.840Z,37.13
2018-03-01T12:16:27.380Z,41.33
2018-03-01T12:18:54.871Z,43.25
2018-03-01T12:21:22.412Z,41.53
2018-03-01T12:23:49.916Z,39.58
2018-03-01T12:26:17.402Z,41.75
2018-03-01T12:28:47.127Z,45.63
2018-03-01T12:34:03.048Z,33.30
2018-03-01T12:36:30.962Z,41.97
2018-03-01T12:39:02.890Z,40.47
2018-03-01T12:41:34.726Z,39.85
2018-03-01T12:44:02.300Z,45.15
2018-03-01T12:46:31.149Z,44.22
2018-03-01T12:48:59.462Z,42.13
2018-03-01T12:51:27.021Z,39.88
2018-03-01T12:53:54.572Z,34.35
2018-03-01T12:56:22.128Z,32.80
2018-03-01T12:58:49.680Z,38.30
2018-03-01T13:01:17.236Z,35.45
2018-03-01T13:03:44.735Z,35.55
2018-03-01T13:06:12.260Z,39.00
2018-03-01T13:08:39.775Z,35.40
2018-03-01T13:11:07.357Z,41.78
2018-03-01T13:13:34.860Z,30.90
2018-03-01T13:16:02.416Z,41.45
2018-03-01T13:18:29.937Z,40.00
2018-03-01T13:20:57.486Z,42.03
2018-03-01T13:23:25.001Z,41.28
2018-03-01T13:25:52.559Z,36.22
2018-03-01T13:28:20.147Z,38.00
2018-03-01T13:30:50.286Z,37.28
2018-03-01T13:33:18.778Z,39.95
2018-03-01T13:35:47.049Z,39.63
2018-03-01T13:38:14.591Z,43.83
2018-03-01T13:40:42.108Z,41.60
2018-03-01T13:43:19.547Z,37.03
2018-03-01T13:45:48.897Z,38.85
2018-03-01T13:48:16.548Z,31.48
2018-03-01T13:50:44.178Z,31.80
2018-03-01T13:53:12.009Z,30.10
2018-03-01T13:55:39.666Z,33.08
2018-03-01T13:58:18.095Z,32.03
2018-03-01T14:01:04.335Z,32.78
2018-03-01T14:11:01.971Z,32.75
2018-03-01T14:13:33.464Z,32.90
2018-03-01T14:16:00.980Z,34.38
2018-03-01T14:18:32.188Z,30.83
2018-03-01T14:21:05.151Z,30.33
2018-03-01T14:23:43.413Z,29.67
2018-03-01T14:26:21.716Z,37.20
2018-03-01T14:32:00.361Z,27.73
2018-03-01T14:34:27.849Z,30.27
2018-03-01T14:36:55.353Z,32.28
2018-03-01T14:39:22.852Z,31.90
2018-03-01T14:41:50.357Z,30.83
2018-03-01T14:44:17.883Z,32.00
2018-03-01T14:46:45.404Z,32.03
2018-03-01T14:49:12.920Z,30.42
2018-03-01T14:51:40.437Z,27.35
2018-03-01T14:54:07.960Z,32.60
2018-03-01T14:56:35.578Z,33.33
2018-03-01T14:59:03.120Z,33.92
2018-03-01T15:01:30.635Z,29.63
2018-03-01T15:03:58.131Z,28.38
2018-03-01T15:06:25.616Z,27.67
2018-03-01T15:08:53.116Z,31.62
2018-03-01T15:11:20.627Z,30.37
2018-03-01T15:13:48.109Z,36.85
2018-03-01T15:16:15.604Z,27.48
2018-03-01T15:18:43.115Z,27.98
2018-03-01T15:21:10.657Z,29.85
2018-03-01T15:23:38.167Z,27.05
2018-03-01T15:26:05.685Z,30.88
2018-03-01T15:28:33.256Z,31.08
2018-03-01T15:31:00.759Z,29.92
2018-03-01T15:33:28.259Z,27.75
2018-03-01T15:35:55.801Z,26.33
2018-03-01T15:38:23.296Z,32.40
2018-03-01T15:40:50.835Z,23.83
2018-03-01T15:43:18.344Z,25.55
2018-03-01T15:45:45.826Z,24.95
2018-03-01T15:48:13.347Z,27.37
2018-03-01T15:50:40.844Z,26.95
2018-03-01T15:53:08.344Z,24.92
2018-03-01T15:55:35.890Z,23.42
2018-03-01T15:58:04.588Z,28.58
2018-03-01T16:00:32.088Z,28.87
2018-03-01T16:02:59.595Z,25.55
2018-03-01T16:05:27.099Z,24.98
2018-03-01T16:07:54.583Z,26.67
2018-03-01T16:10:22.088Z,28.08
2018-03-01T16:12:49.653Z,27.75
2018-03-01T16:15:17.187Z,29.70
2018-03-01T16:17:44.712Z,24.58
2018-03-01T16:20:12.254Z,22.83
2018-03-01T16:22:41.301Z,27.27
2018-03-01T16:25:08.856Z,26.20
2018-03-01T16:27:36.412Z,28.48
2018-03-01T16:30:03.944Z,26.05
2018-03-01T16:32:32.468Z,27.30
2018-03-01T16:34:59.991Z,26.67
2018-03-01T16:37:27.624Z,25.73
2018-03-01T16:39:55.171Z,24.98
2018-03-01T16:42:22.671Z,26.42
2018-03-01T16:44:50.197Z,18.95
2018-03-01T16:47:17.692Z,26.90
2018-03-01T16:49:45.197Z,27.42
2018-03-01T16:52:13.662Z,27.60
2018-03-01T16:54:42.394Z,26.70
2018-03-01T16:57:10.507Z,25.48
2018-03-01T16:59:38.031Z,27.23
2018-03-01T17:02:08.391Z,24.20
2018-03-01T17:04:37.126Z,29.12
2018-03-01T17:07:07.259Z,26.05
2018-03-01T17:09:34.751Z,27.17
2018-03-01T17:12:02.250Z,19.67
2018-03-01T17:14:29.763Z,28.15
2018-03-01T17:16:57.271Z,28.75
2018-03-01T17:19:24.788Z,31.25
2018-03-01T17:21:52.282Z,25.73
2018-03-01T17:24:19.875Z,26.23
2018-03-01T17:26:53.262Z,26.50
2018-03-01T17:29:20.789Z,28.45
2018-03-01T17:31:48.799Z,25.73
2018-03-01T17:34:16.299Z,30.25
2018-03-01T17:36:45.915Z,32.03
2018-03-01T17:39:14.254Z,30.85
2018-03-01T17:41:41.887Z,25.52
2018-03-01T17:44:09.415Z,26.37
2018-03-01T17:46:36.939Z,28.27
2018-03-01T17:49:04.502Z,27.10
2018-03-01T17:51:32.006Z,28.75
2018-03-01T17:53:59.626Z,27.33
2018-03-01T17:56:27.149Z,26.10
2018-03-01T17:58:55.980Z,25.67
2018-03-01T18:01:23.536Z,27.90
2018-03-01T18:03:51.030Z,25.40
2018-03-01T18:06:19.756Z,22.70
2018-03-01T18:08:48.120Z,24.48
2018-03-01T18:11:15.576Z,26.92
2018-03-01T18:13:43.077Z,31.20
2018-03-01T18:16:10.585Z,27.00
2018-03-01T18:18:38.091Z,26.92
2018-03-01T18:21:05.583Z,26.67
2018-03-01T18:23:33.084Z,27.35
2018-03-01T18:26:00.602Z,30.30
2018-03-01T18:28:28.107Z,31.15
2018-03-01T18:30:55.656Z,27.62
2018-03-01T18:33:23.170Z,29.40
2018-03-01T18:35:50.671Z,26.17
2018-03-01T18:38:18.162Z,25.50
2018-03-01T18:40:45.652Z,26.95
2018-03-01T18:43:13.144Z,22.55
2018-03-01T18:45:40.813Z,27.92
2018-03-01T18:48:08.328Z,22.80
2018-03-01T18:50:35.847Z,33.97
2018-03-01T18:53:04.191Z,24.65
2018-03-01T18:55:31.719Z,28.40
2018-03-01T18:57:59.307Z,28.12
2018-03-01T19:00:28.627Z,29.70
2018-03-01T19:02:56.172Z,33.90
2018-03-01T19:05:23.658Z,28.77
2018-03-01T19:07:51.192Z,32.80
2018-03-01T19:10:18.684Z,30.27
2018-03-01T19:15:11.248Z,30.02
2018-03-01T19:17:38.751Z,31.42
2018-03-01T19:20:08.295Z,27.20
2018-03-01T19:22:36.401Z,34.33
2018-03-01T19:25:03.932Z,26.87
2018-03-01T19:27:31.638Z,29.33
2018-03-01T19:29:59.132Z,27.02
2018-03-01T19:32:26.659Z,30.25
2018-03-01T19:34:55.314Z,29.50
2018-03-01T19:37:22.830Z,32.10
2018-03-01T19:39:55.851Z,32.15
2018-03-01T19:42:23.392Z,23.08
2018-03-01T19:44:50.882Z,28.80
2018-03-01T19:47:18.408Z,30.30
2018-03-01T19:49:46.603Z,33.97
2018-03-01T19:52:14.177Z,31.42
2018-03-01T19:54:41.711Z,27.25
2018-03-01T19:57:09.265Z,25.67
2018-03-01T19:59:37.311Z,28.83
2018-03-01T20:02:04.866Z,25.25
2018-03-01T20:04:32.449Z,27.87
2018-03-01T20:07:00.031Z,27.92
2018-03-01T20:09:27.623Z,26.12
2018-03-01T20:11:55.166Z,29.85
2018-03-01T20:14:22.706Z,29.80
2018-03-01T20:16:50.209Z,26.40
2018-03-01T20:19:17.716Z,29.60
2018-03-01T20:21:45.207Z,24.12
2018-03-01T20:24:12.753Z,30.62
2018-03-01T20:26:41.346Z,30.35
2018-03-01T20:29:09.608Z,27.45
2018-03-01T20:31:37.116Z,25.25
2018-03-01T20:34:04.774Z,31.02
2018-03-01T20:36:33.063Z,26.40
2018-03-01T20:39:00.620Z,26.30
2018-03-01T20:41:28.131Z,27.58
2018-03-01T20:43:55.635Z,28.60
2018-03-01T20:46:23.131Z,28.90
2018-03-01T20:48:50.651Z,31.00
2018-03-01T20:51:18.155Z,31.95
2018-03-01T20:53:45.660Z,30.00
2018-03-01T20:56:15.688Z,29.87
2018-03-01T20:58:43.199Z,28.80
2018-03-01T21:01:10.715Z,28.05
2018-03-01T21:03:38.215Z,33.05
2018-03-01T21:06:05.716Z,32.63
2018-03-01T21:08:33.220Z,31.48
2018-03-01T21:11:00.711Z,31.42
2018-03-01T21:13:28.211Z,32.92
2018-03-01T21:15:55.731Z,31.00
2018-03-01T21:18:25.638Z,29.95
2018-03-01T21:20:53.148Z,26.87
2018-03-01T21:23:20.657Z,29.00
2018-03-01T21:25:48.294Z,31.27
2018-03-01T21:28:15.833Z,32.55
2018-03-01T21:30:43.348Z,28.52
2018-03-01T21:33:10.890Z,28.35
2018-03-01T21:35:39.356Z,28.05
2018-03-01T21:38:06.930Z,26.37
2018-03-01T21:40:34.463Z,29.08
2018-03-01T21:43:01.982Z,28.17
2018-03-01T21:45:29.571Z,31.08
2018-03-01T21:47:57.178Z,29.73
2018-03-01T21:50:24.720Z,27.30
2018-03-01T21:52:52.219Z,28.77
2018-03-01T21:55:19.744Z,28.92
2018-03-01T21:57:47.242Z,27.13
2018-03-01T22:00:14.733Z,28.73
2018-03-01T22:02:42.576Z,32.65
2018-03-01T22:05:10.127Z,22.08
2018-03-01T22:07:37.607Z,29.55
2018-03-01T22:10:05.127Z,25.42
2018-03-01T22:12:33.621Z,26.25
2018-03-01T22:15:04.015Z,30.83
2018-03-01T22:17:31.527Z,31.90
2018-03-01T22:19:59.039Z,29.15
2018-03-01T22:22:26.590Z,31.35
2018-03-01T22:24:54.083Z,29.70
2018-03-01T22:27:21.585Z,33.08
2018-03-01T22:29:51.945Z,25.48
2018-03-01T22:32:20.741Z,28.25
2018-03-01T22:34:48.286Z,27.73
2018-03-01T22:37:15.778Z,28.58
2018-03-01T22:39:45.246Z,27.62
2018-03-01T22:42:12.808Z,27.87
2018-03-01T22:44:40.303Z,28.25
2018-03-01T22:47:07.803Z,27.00
2018-03-01T22:49:35.320Z,29.17
2018-03-01T22:52:02.796Z,31.75
2018-03-01T22:54:30.330Z,26.73
2018-03-01T22:56:57.807Z,24.05
2018-03-01T22:59:25.317Z,26.87
2018-03-01T23:01:52.809Z,26.17
2018-03-01T23:04:20.309Z,25.10
2018-03-01T23:06:47.819Z,27.13
2018-03-01T23:09:15.310Z,25.17
2018-03-01T23:11:42.823Z,26.08
2018-03-01T23:14:10.889Z,28.02
2018-03-01T23:16:38.382Z,29.17
2018-03-01T23:19:05.907Z,28.12
2018-03-01T23:21:33.361Z,24.42
2018-03-01T23:24:00.894Z,26.48
2018-03-01T23:26:28.343Z,25.15
2018-03-01T23:28:55.871Z,27.02
2018-03-01T23:31:24.644Z,22.65
2018-03-01T23:33:52.149Z,23.42
2018-03-01T23:36:19.668Z,24.12
2018-03-01T23:38:47.167Z,22.23
2018-03-01T23:41:14.671Z,26.12
2018-03-01T23:43:42.167Z,22.48
2018-03-01T23:46:13.544Z,22.25
2018-03-01T23:48:41.037Z,20.35
2018-03-01T23:51:13.256Z,23.10
2018-03-01T23:53:40.752Z,21.02
2018-03-01T23:56:08.236Z,20.12
2018-03-01T23:58:35.727Z,19.00
